createdAt,value
2023-02-03T00:01:38.002Z,7.97
2023-02-03T00:04:06.196Z,9.03
2023-02-03T00:06:43.645Z,9.65
2023-02-03T00:09:44.299Z,11.65
2023-02-03T00:13:53.026Z,9.65
2023-02-03T00:16:19.739Z,14.10
2023-02-03T00:18:54.299Z,12.40
2023-02-03T00:21:35.913Z,5.80
2023-02-03T00:25:53.502Z,9.70
2023-02-03T00:30:39.284Z,9.60
2023-02-03T00:33:51.161Z,9.77
2023-02-03T00:37:10.343Z,7.78
2023-02-03T00:40:34.742Z,11.82
2023-02-03T00:43:36.633Z,8.27
2023-02-03T00:46:03.240Z,12.38
2023-02-03T00:48:31.958Z,7.83
2023-02-03T00:51:01.351Z,12.00
2023-02-03T00:53:27.927Z,8.55
2023-02-03T00:55:57.830Z,8.40
2023-02-03T00:58:47.671Z,10.38
2023-02-03T01:01:24.799Z,9.13
2023-02-03T01:04:12.479Z,10.88
2023-02-03T01:06:40.327Z,9.05
2023-02-03T01:09:10.534Z,6.85
2023-02-03T01:11:41.038Z,14.18
2023-02-03T01:14:07.911Z,7.33
2023-02-03T01:19:31.400Z,10.57
2023-02-03T01:22:15.524Z,9.88
2023-02-03T01:25:02.351Z,7.03
2023-02-03T01:27:28.887Z,6.23
2023-02-03T01:29:57.487Z,9.70
2023-02-03T01:32:26.019Z,9.85
2023-02-03T01:34:52.527Z,8.25
2023-02-03T01:41:13.661Z,13.57
2023-02-03T01:43:42.890Z,8.85
2023-02-03T01:47:22.798Z,8.43
2023-02-03T01:53:26.576Z,3.40
2023-02-03T01:59:21.873Z,8.48
2023-02-03T02:01:53.674Z,10.07
2023-02-03T02:04:21.977Z,8.15
2023-02-03T02:06:50.870Z,7.40
2023-02-03T02:09:57.568Z,5.43
2023-02-03T02:12:24.193Z,10.40
2023-02-03T02:14:50.988Z,9.77
2023-02-03T02:17:43.041Z,7.80
2023-02-03T02:24:24.574Z,5.57
2023-02-03T02:27:05.093Z,5.68
2023-02-03T02:33:18.410Z,6.93
2023-02-03T02:35:50.741Z,12.18
2023-02-03T02:38:26.821Z,8.43
2023-02-03T02:41:16.380Z,6.88
2023-02-03T02:47:03.345Z,5.85
2023-02-03T02:50:14.828Z,7.93
2023-02-03T02:52:46.958Z,8.57
2023-02-03T02:55:23.225Z,5.28
2023-02-03T02:57:51.539Z,7.13
2023-02-03T03:00:18.766Z,6.07
2023-02-03T03:02:45.298Z,7.50
2023-02-03T03:05:12.638Z,7.63
2023-02-03T03:07:48.997Z,9.60
2023-02-03T03:14:22.766Z,6.22
2023-02-03T03:16:57.846Z,9.10
2023-02-03T03:19:35.141Z,5.43
2023-02-03T03:23:05.001Z,7.63
2023-02-03T03:25:47.693Z,9.23
2023-02-03T03:28:24.581Z,9.25
2023-02-03T03:45:01.553Z,5.07
2023-02-03T03:48:10.175Z,5.03
2023-02-03T03:51:29.853Z,11.80
2023-02-03T03:55:02.712Z,7.95
2023-02-03T03:57:43.023Z,4.80
2023-02-03T04:00:14.973Z,4.55
2023-02-03T04:03:11.671Z,5.78
2023-02-03T04:05:41.915Z,7.13
2023-02-03T04:08:08.418Z,7.47
2023-02-03T04:10:37.084Z,5.85
2023-02-03T04:13:52.744Z,7.38
2023-02-03T04:16:48.264Z,7.78
2023-02-03T04:19:14.810Z,5.30
2023-02-03T04:22:10.048Z,4.32
2023-02-03T04:24:45.741Z,7.30
2023-02-03T04:27:12.354Z,6.25
2023-02-03T04:29:40.373Z,6.97
2023-02-03T04:32:07.019Z,7.93
2023-02-03T04:34:33.711Z,6.53
2023-02-03T04:37:00.176Z,6.53
2023-02-03T04:39:26.694Z,8.20
2023-02-03T04:41:55.511Z,7.70
2023-02-03T04:44:22.034Z,6.17
2023-02-03T04:46:49.921Z,7.35
2023-02-03T04:49:16.378Z,8.50
2023-02-03T04:51:43.409Z,6.50
2023-02-03T04:54:10.020Z,6.57
2023-02-03T04:56:37.485Z,7.37
2023-02-03T04:59:04.011Z,6.97
2023-02-03T05:01:30.925Z,5.35
2023-02-03T05:03:58.700Z,11.25
2023-02-03T05:06:26.399Z,6.10
2023-02-03T05:08:53.016Z,4.47
2023-02-03T05:11:19.734Z,6.35
2023-02-03T05:13:46.253Z,6.70
2023-02-03T05:16:12.903Z,8.25
2023-02-03T05:18:39.671Z,9.20
2023-02-03T05:21:07.915Z,5.13
2023-02-03T05:23:36.608Z,6.72
2023-02-03T05:26:06.217Z,4.82
2023-02-03T05:28:32.766Z,6.28
2023-02-03T05:30:59.426Z,5.90
2023-02-03T05:33:26.084Z,6.20
2023-02-03T05:35:52.550Z,4.97
2023-02-03T05:38:20.932Z,8.07
2023-02-03T05:40:48.647Z,8.18
2023-02-03T05:43:15.300Z,6.18
2023-02-03T05:45:42.007Z,5.27
2023-02-03T05:48:08.915Z,4.88
2023-02-03T05:50:38.497Z,4.78
2023-02-03T05:53:06.025Z,7.75
2023-02-03T05:55:35.025Z,7.93
2023-02-03T05:58:01.596Z,8.27
2023-02-03T06:00:29.181Z,3.67
2023-02-03T06:02:58.549Z,7.22
2023-02-03T06:05:26.070Z,3.92
2023-02-03T06:07:52.731Z,5.93
2023-02-03T06:10:19.867Z,7.10
2023-02-03T06:12:48.210Z,5.47
2023-02-03T06:15:15.304Z,5.93
2023-02-03T06:17:44.731Z,2.63
2023-02-03T06:20:19.787Z,3.38
2023-02-03T06:22:48.399Z,3.40
2023-02-03T06:25:14.981Z,5.57
2023-02-03T06:27:41.887Z,6.20
2023-02-03T06:30:20.063Z,4.82
2023-02-03T06:32:48.830Z,4.95
2023-02-03T06:35:15.508Z,7.73
2023-02-03T06:37:42.395Z,6.25
2023-02-03T06:40:10.686Z,6.57
2023-02-03T06:42:37.328Z,6.50
2023-02-03T06:45:04.844Z,2.15
2023-02-03T06:50:50.591Z,6.63
2023-02-03T06:53:17.356Z,8.57
2023-02-03T06:55:43.901Z,3.45
2023-02-03T06:58:10.451Z,2.90
2023-02-03T07:00:44.106Z,5.20
2023-02-03T07:03:14.823Z,6.45
2023-02-03T07:08:52.983Z,2.55
2023-02-03T07:11:25.880Z,3.78
2023-02-03T07:13:55.735Z,3.10
2023-02-03T07:16:22.432Z,3.40
2023-02-03T07:22:25.077Z,6.40
2023-02-03T07:28:03.817Z,5.43
2023-02-03T07:30:32.271Z,8.18
2023-02-03T07:33:44.828Z,3.72
2023-02-03T07:36:37.027Z,5.80
2023-02-03T07:39:20.449Z,6.13
2023-02-03T07:41:49.283Z,6.20
2023-02-03T07:44:18.323Z,6.32
2023-02-03T07:46:45.041Z,3.95
2023-02-03T07:49:12.158Z,4.43
2023-02-03T07:51:38.934Z,4.97
2023-02-03T07:54:05.843Z,13.23
2023-02-03T07:56:35.006Z,4.60
2023-02-03T08:01:58.933Z,3.88
2023-02-03T08:04:25.514Z,7.22
2023-02-03T08:17:38.153Z,3.22
2023-02-03T08:20:07.866Z,1.75
2023-02-03T08:22:35.730Z,6.10
2023-02-03T08:25:14.853Z,5.85
2023-02-03T08:38:11.295Z,8.03
2023-02-03T08:40:38.360Z,4.60
2023-02-03T08:46:03.860Z,4.15
2023-02-03T08:59:52.458Z,4.63
2023-02-03T09:05:13.633Z,6.57
2023-02-03T09:10:23.860Z,5.80
2023-02-03T09:13:10.996Z,6.68
2023-02-03T09:15:52.974Z,6.07
2023-02-03T09:18:20.398Z,6.20
2023-02-03T09:20:52.969Z,5.73
2023-02-03T09:23:35.110Z,5.10
2023-02-03T09:26:02.833Z,6.18
2023-02-03T09:28:30.762Z,6.38
2023-02-03T09:31:01.016Z,6.60
2023-02-03T09:33:27.791Z,4.83
2023-02-03T09:35:54.923Z,8.68
2023-02-03T09:38:23.330Z,6.78
2023-02-03T09:41:09.384Z,3.97
2023-02-03T09:43:43.266Z,6.28
2023-02-03T09:46:22.549Z,8.20
2023-02-03T09:49:00.326Z,6.15
2023-02-03T09:51:36.350Z,5.68
2023-02-03T09:54:20.306Z,6.35
2023-02-03T09:56:49.355Z,6.68
2023-02-03T09:59:16.338Z,5.90
2023-02-03T10:05:25.481Z,7.15
2023-02-03T10:08:03.306Z,5.75
2023-02-03T10:10:38.789Z,5.32
2023-02-03T10:13:15.925Z,10.70
2023-02-03T10:16:01.964Z,8.25
2023-02-03T10:18:30.875Z,7.22
2023-02-03T10:21:01.928Z,6.80
2023-02-03T10:23:31.619Z,7.40
2023-02-03T10:26:01.924Z,9.13
2023-02-03T10:28:31.600Z,6.38
2023-02-03T10:31:00.611Z,6.53
2023-02-03T10:33:29.256Z,8.05
2023-02-03T10:36:04.520Z,9.32
2023-02-03T10:38:43.311Z,6.00
2023-02-03T10:41:10.631Z,7.80
2023-02-03T10:43:39.944Z,6.78
2023-02-03T10:46:06.673Z,8.48
2023-02-03T10:48:33.158Z,9.52
2023-02-03T10:51:02.746Z,7.63
2023-02-03T10:53:33.723Z,10.32
2023-02-03T10:56:04.800Z,6.65
2023-02-03T10:58:34.289Z,7.38
2023-02-03T11:01:10.631Z,10.43
2023-02-03T11:03:42.485Z,8.23
2023-02-03T11:06:12.881Z,9.38
2023-02-03T11:08:42.359Z,10.88
2023-02-03T11:11:14.306Z,12.98
2023-02-03T11:13:41.063Z,6.40
2023-02-03T11:16:14.017Z,7.77
2023-02-03T11:18:52.112Z,11.55
2023-02-03T11:21:22.398Z,7.28
2023-02-03T11:23:53.159Z,10.25
2023-02-03T11:30:06.665Z,8.63
2023-02-03T11:32:36.240Z,8.07
2023-02-03T11:35:13.377Z,7.80
2023-02-03T11:37:42.801Z,11.35
2023-02-03T11:40:27.811Z,10.38
2023-02-03T11:43:05.358Z,10.57
2023-02-03T11:45:37.882Z,11.75
2023-02-03T11:48:17.848Z,9.43
2023-02-03T11:50:49.864Z,11.80
2023-02-03T11:53:29.925Z,8.18
2023-02-03T11:56:16.953Z,6.70
2023-02-03T12:00:18.732Z,7.85
2023-02-03T12:02:29.224Z,9.65
2023-02-03T12:05:14.991Z,7.57
2023-02-03T12:08:16.643Z,7.95
2023-02-03T12:14:00.233Z,6.10
2023-02-03T12:16:42.922Z,7.47
2023-02-03T12:19:18.001Z,7.05
2023-02-03T12:21:46.556Z,5.68
2023-02-03T12:24:24.336Z,6.07
2023-02-03T12:27:00.919Z,7.60
2023-02-03T12:29:32.646Z,9.40
2023-02-03T12:32:06.825Z,9.07
2023-02-03T12:34:37.270Z,9.65
2023-02-03T12:37:08.319Z,9.20
2023-02-03T12:40:24.147Z,6.15
2023-02-03T12:46:17.848Z,3.10
2023-02-03T12:48:53.392Z,4.20
2023-02-03T12:51:30.792Z,6.35
2023-02-03T12:54:02.965Z,6.87
2023-02-03T12:56:34.443Z,7.35
2023-02-03T12:59:06.088Z,6.85
2023-02-03T13:01:37.700Z,5.32
2023-02-03T13:04:10.683Z,11.47
2023-02-03T13:06:45.847Z,3.95
2023-02-03T13:09:25.963Z,6.47
2023-02-03T13:12:01.926Z,7.00
2023-02-03T13:14:33.024Z,8.63
2023-02-03T13:17:07.947Z,6.37
2023-02-03T13:19:41.240Z,6.55
2023-02-03T13:22:12.203Z,8.77
2023-02-03T13:24:55.099Z,3.38
2023-02-03T13:27:40.366Z,8.02
2023-02-03T13:30:21.304Z,5.17
2023-02-03T13:33:22.596Z,4.95
2023-02-03T13:36:05.133Z,10.20
2023-02-03T13:39:05.020Z,6.70
2023-02-03T13:41:38.240Z,8.65
2023-02-03T13:44:12.520Z,5.23
2023-02-03T13:46:40.475Z,7.05
2023-02-03T13:49:09.540Z,5.28
2023-02-03T13:51:42.720Z,6.07
2023-02-03T13:54:17.163Z,6.40
2023-02-03T13:56:54.362Z,6.13
2023-02-03T13:59:29.312Z,6.38
2023-02-03T14:02:44.565Z,10.15
2023-02-03T14:05:47.935Z,6.32
2023-02-03T14:08:52.638Z,6.10
2023-02-03T14:11:41.974Z,5.70
2023-02-03T14:14:55.395Z,7.13
2023-02-03T14:17:56.031Z,9.05
2023-02-03T14:20:43.103Z,7.05
2023-02-03T14:23:18.582Z,9.50
2023-02-03T14:25:48.248Z,13.77
2023-02-03T14:28:18.018Z,8.05
2023-02-03T14:31:08.500Z,8.52
2023-02-03T14:34:07.803Z,12.02
2023-02-03T14:36:38.959Z,7.90
2023-02-03T14:39:42.690Z,5.57
2023-02-03T14:42:17.886Z,7.93
2023-02-03T14:44:57.997Z,10.13
2023-02-03T14:47:38.371Z,6.78
2023-02-03T14:50:21.223Z,5.93
2023-02-03T14:53:06.925Z,9.37
2023-02-03T14:55:46.347Z,7.10
2023-02-03T14:58:25.857Z,5.90
2023-02-03T15:00:52.444Z,7.63
2023-02-03T15:03:21.782Z,5.20
2023-02-03T15:05:50.605Z,5.60
2023-02-03T15:08:37.323Z,3.95
2023-02-03T15:11:33.333Z,4.95
2023-02-03T15:14:20.951Z,7.90
2023-02-03T15:16:50.624Z,9.13
2023-02-03T15:19:19.086Z,7.00
2023-02-03T15:21:45.664Z,6.13
2023-02-03T15:24:14.699Z,10.32
2023-02-03T15:26:47.942Z,6.13
2023-02-03T15:29:23.609Z,15.77
2023-02-03T15:31:55.336Z,11.97
2023-02-03T15:34:27.361Z,9.77
2023-02-03T15:36:57.052Z,7.95
2023-02-03T15:39:38.149Z,13.25
2023-02-03T15:42:12.344Z,13.55
2023-02-03T15:44:43.736Z,12.17
2023-02-03T15:47:23.101Z,11.40
2023-02-03T15:49:58.805Z,8.35
2023-02-03T15:52:27.951Z,9.70
2023-02-03T15:55:03.849Z,8.52
2023-02-03T15:57:34.806Z,11.60
2023-02-03T16:00:11.378Z,12.73
2023-02-03T16:02:44.411Z,9.20
2023-02-03T16:05:24.071Z,17.38
2023-02-03T16:07:51.081Z,13.02
2023-02-03T16:10:26.814Z,14.07
2023-02-03T16:13:09.943Z,9.90
2023-02-03T16:15:36.618Z,14.15
2023-02-03T16:18:03.583Z,19.55
2023-02-03T16:20:30.505Z,14.02
2023-02-03T16:26:29.903Z,15.23
2023-02-03T16:29:14.553Z,16.73
2023-02-03T16:31:44.635Z,17.20
2023-02-03T16:34:16.572Z,18.35
2023-02-03T16:36:44.178Z,18.17
2023-02-03T16:39:12.618Z,16.65
2023-02-03T16:41:39.414Z,15.75
2023-02-03T16:44:06.404Z,26.85
2023-02-03T16:46:34.280Z,16.45
2023-02-03T16:49:00.812Z,15.83
2023-02-03T16:51:33.833Z,14.93
2023-02-03T16:54:00.544Z,14.50
2023-02-03T16:56:27.183Z,10.63
2023-02-03T16:58:53.744Z,17.15
2023-02-03T17:01:20.397Z,12.07
2023-02-03T17:03:48.614Z,12.90
2023-02-03T17:06:15.213Z,14.05
2023-02-03T17:08:42.772Z,18.15
2023-02-03T17:11:13.913Z,14.80
2023-02-03T17:13:40.569Z,13.33
2023-02-03T17:16:10.379Z,18.45
2023-02-03T17:18:37.454Z,12.60
2023-02-03T17:21:07.386Z,12.52
2023-02-03T17:23:34.224Z,15.23
2023-02-03T17:26:00.842Z,10.57
2023-02-03T17:28:29.213Z,12.10
2023-02-03T17:30:57.109Z,15.55
2023-02-03T17:33:24.143Z,13.82
2023-02-03T17:36:00.327Z,10.77
2023-02-03T17:38:28.685Z,15.60
2023-02-03T17:54:40.196Z,15.15
2023-02-03T17:57:09.921Z,14.77
2023-02-03T17:59:36.447Z,11.63
2023-02-03T18:02:03.586Z,12.98
2023-02-03T18:04:30.376Z,10.90
2023-02-03T18:06:59.837Z,10.85
2023-02-03T18:09:26.693Z,12.07
2023-02-03T18:11:55.431Z,11.23
2023-02-03T18:14:22.355Z,11.80
2023-02-03T18:16:48.930Z,11.20
2023-02-03T18:19:15.840Z,11.85
2023-02-03T18:21:43.547Z,16.30
2023-02-03T18:24:11.555Z,12.88
2023-02-03T18:26:46.388Z,11.82
2023-02-03T18:29:14.572Z,13.83
2023-02-03T18:31:41.451Z,15.45
2023-02-03T18:34:08.190Z,15.32
2023-02-03T18:36:34.696Z,10.73
2023-02-03T18:39:01.520Z,12.98
2023-02-03T18:41:28.414Z,13.73
2023-02-03T18:43:55.523Z,16.08
2023-02-03T18:46:30.028Z,15.63
2023-02-03T18:48:57.145Z,11.07
2023-02-03T19:08:01.870Z,15.55
2023-02-03T19:24:16.733Z,13.93
2023-02-03T19:26:57.425Z,13.23
2023-02-03T19:29:28.270Z,17.48
2023-02-03T19:31:55.470Z,24.23
2023-02-03T19:34:22.513Z,12.65
2023-02-03T19:36:49.017Z,10.20
2023-02-03T19:39:17.250Z,17.17
2023-02-03T19:41:43.734Z,12.82
2023-02-03T19:44:10.402Z,19.17
2023-02-03T19:46:37.538Z,16.13
2023-02-03T19:49:05.057Z,21.60
2023-02-03T19:51:31.625Z,15.47
2023-02-03T19:53:58.542Z,17.52
2023-02-03T19:56:26.464Z,16.27
2023-02-03T19:58:53.660Z,16.67
2023-02-03T20:01:21.027Z,14.82
2023-02-03T20:03:47.660Z,20.80
2023-02-03T20:06:14.404Z,21.63
2023-02-03T20:08:42.964Z,17.27
2023-02-03T20:11:09.870Z,17.70
2023-02-03T20:13:37.776Z,18.27
2023-02-03T20:16:04.866Z,15.40
2023-02-03T20:18:31.446Z,16.85
2023-02-03T20:20:57.966Z,15.20
2023-02-03T20:23:25.231Z,26.60
2023-02-03T20:25:53.002Z,17.27
2023-02-03T20:28:19.939Z,16.23
2023-02-03T20:30:51.327Z,19.50
2023-02-03T20:33:18.104Z,18.17
2023-02-03T20:35:44.925Z,18.65
2023-02-03T20:38:12.392Z,18.05
2023-02-03T20:40:38.919Z,16.67
2023-02-03T20:43:15.219Z,19.10
2023-02-03T20:45:41.931Z,17.75
2023-02-03T20:48:22.400Z,14.70
2023-02-03T20:50:51.405Z,15.10
2023-02-03T20:53:20.947Z,14.20
2023-02-03T20:55:48.480Z,16.38
2023-02-03T20:58:18.464Z,19.63
2023-02-03T21:00:46.496Z,19.15
2023-02-03T21:03:16.754Z,12.75
2023-02-03T21:05:46.621Z,20.93
2023-02-03T21:08:14.790Z,16.98
2023-02-03T21:10:44.712Z,10.10
2023-02-03T21:13:22.230Z,13.95
2023-02-03T21:42:51.765Z,20.00
2023-02-03T21:45:26.556Z,15.77
2023-02-03T21:47:53.235Z,16.60
2023-02-03T21:50:30.497Z,15.98
2023-02-03T21:52:57.594Z,21.85
2023-02-03T21:55:24.101Z,17.20
2023-02-03T21:57:54.281Z,23.58
2023-02-03T22:00:40.785Z,19.13
2023-02-03T22:03:16.695Z,11.80
2023-02-03T22:05:43.387Z,13.85
2023-02-03T22:08:17.454Z,18.30
2023-02-03T22:10:43.937Z,16.70
2023-02-03T22:13:11.842Z,12.20
2023-02-03T22:15:38.417Z,15.57
2023-02-03T22:18:05.201Z,19.05
2023-02-03T22:20:32.141Z,16.13
2023-02-03T22:22:58.898Z,14.38
2023-02-03T22:25:25.443Z,23.47
2023-02-03T22:27:53.071Z,17.75
2023-02-03T22:30:21.150Z,17.77
2023-02-03T22:32:47.662Z,16.27
2023-02-03T22:35:14.282Z,16.67
2023-02-03T22:37:40.853Z,19.20
2023-02-03T22:40:08.161Z,23.85
2023-02-03T22:42:34.738Z,19.75
2023-02-03T22:45:01.664Z,16.17
2023-02-03T22:47:29.594Z,21.02
2023-02-03T22:49:56.101Z,17.33
2023-02-03T22:52:22.793Z,17.83
2023-02-03T22:54:49.279Z,13.40
2023-02-03T22:57:15.829Z,10.57
2023-02-03T22:59:42.295Z,17.80
2023-02-03T23:02:08.933Z,19.00
2023-02-03T23:04:36.902Z,14.60
2023-02-03T23:07:03.418Z,12.55
2023-02-03T23:09:29.995Z,16.05
2023-02-03T23:11:56.539Z,20.42
2023-02-03T23:14:23.355Z,18.97
2023-02-03T23:16:49.858Z,15.82
2023-02-03T23:19:16.474Z,20.70
2023-02-03T23:21:44.415Z,18.98
2023-02-03T23:24:10.951Z,15.40
2023-02-03T23:26:37.518Z,20.27
2023-02-03T23:29:04.065Z,16.63
2023-02-03T23:31:30.684Z,19.90
2023-02-03T23:33:57.259Z,14.00
2023-02-03T23:36:23.773Z,18.77
2023-02-03T23:38:51.635Z,20.00
2023-02-03T23:41:18.203Z,21.13
2023-02-03T23:43:44.652Z,18.38
2023-02-03T23:46:11.503Z,11.88
2023-02-03T23:48:38.467Z,13.55
2023-02-03T23:51:05.006Z,22.83
2023-02-03T23:53:31.602Z,17.55
2023-02-03T23:55:59.588Z,23.42
2023-02-03T23:58:26.337Z,13.27
